Terminal Aerodrome Forecast
Issued by NWS Birmingham, AL

Home | Current Version | Previous Version | Text Only | Print | Product List | Glossary On
Versions: 1 2 3 4 5 6 7 8 9 10 11 12 13 14 15 16 17 18 19 20 21 22
000
FTUS44 KBMX 261008 AAA
TAFBHM
TAF AMD
KBHM 261008Z 2610/2706 13007KT P6SM SCT009 BKN020
     FM261100 12004KT P6SM BKN009 OVC020
      TEMPO 2611/2614 SCT009 BKN015
     FM261400 15008KT P6SM BKN025
     FM261700 18008KT P6SM VCTS BKN040CB=

USA.gov is the U.S. government's official web portal to all federal, state and local government web resources and services.